Time;durP1;ratioP1;P1;durP2;ratioP2;P2;SDS_P1;SDS_P2;PMS_P1;PMS_P2;Temp;Humidity;BMP_temperature;BMP_pressure;BME280_temperature;BME280_humidity;BME280_pressure;Samples;Min_cycle;Max_cycle;Signal;HPM_P1;HPM_P2
2020/12/20 00:01:39;;;;;;;18.58;12.38;;;5.50;99.80;;;;;;4918235;28;20579;-86
2020/12/20 00:04:07;;;;;;;19.40;12.75;;;5.50;99.80;;;;;;4923547;28;20291;-87
2020/12/20 00:06:37;;;;;;;18.05;12.05;;;5.50;99.80;;;;;;4919970;28;20755;-86
2020/12/20 00:09:13;;;;;;;23.92;13.27;;;5.50;99.80;;;;;;4928028;28;20275;-86
2020/12/20 00:11:43;;;;;;;18.02;11.93;;;5.50;99.80;;;;;;4954269;28;20649;-86
2020/12/20 00:14:29;;;;;;;21.25;11.55;;;5.50;99.80;;;;;;4967338;28;20317;-86
2020/12/20 00:17:01;;;;;;;16.17;11.20;;;5.60;99.80;;;;;;4958535;28;20587;-86
2020/12/20 00:19:29;;;;;;;23.48;11.68;;;5.60;99.80;;;;;;4955776;28;20312;-86
2020/12/20 00:21:58;;;;;;;17.63;11.05;;;5.60;99.80;;;;;;4918835;28;20776;-87
2020/12/20 00:24:26;;;;;;;19.98;11.77;;;5.60;99.80;;;;;;4938949;28;20225;-87
2020/12/20 00:26:54;;;;;;;16.38;11.23;;;5.60;99.80;;;;;;4967094;28;20469;-86
2020/12/20 00:29:21;;;;;;;19.92;12.52;;;5.60;99.80;;;;;;4934497;28;20246;-87
2020/12/20 00:31:49;;;;;;;16.67;11.43;;;5.60;99.80;;;;;;4912953;28;20227;-86
2020/12/20 00:34:16;;;;;;;16.70;11.73;;;5.60;99.80;;;;;;4919973;28;21067;-86
2020/12/20 00:36:45;;;;;;;19.48;11.80;;;5.60;99.80;;;;;;4940211;28;20247;-86
2020/12/20 00:39:14;;;;;;;18.27;11.55;;;5.60;99.80;;;;;;4939514;28;20258;-86
2020/12/20 00:41:41;;;;;;;20.95;10.52;;;5.60;99.80;;;;;;4964831;28;20671;-86
2020/12/20 00:44:10;;;;;;;19.13;11.40;;;5.60;99.80;;;;;;4968280;28;20238;-86
2020/12/20 00:46:37;;;;;;;17.38;10.65;;;5.60;99.80;;;;;;4962784;28;20228;-86
2020/12/20 00:49:20;;;;;;;18.80;10.57;;;5.60;99.80;;;;;;4945076;28;20647;-86
2020/12/20 00:51:48;;;;;;;20.75;11.27;;;5.60;99.80;;;;;;4936930;28;20240;-87
2020/12/20 00:54:14;;;;;;;13.40;9.75;;;5.70;99.80;;;;;;4951799;28;20227;-86
2020/12/20 00:56:42;;;;;;;20.23;11.73;;;5.70;99.80;;;;;;4967782;28;20244;-87
2020/12/20 00:59:11;;;;;;;21.02;12.20;;;5.60;99.80;;;;;;4954458;28;20268;-86
2020/12/20 01:01:38;;;;;;;15.65;11.07;;;5.60;99.80;;;;;;4909112;28;20235;-86
2020/12/20 01:04:05;;;;;;;21.08;11.82;;;5.60;99.80;;;;;;4937766;28;20731;-87
2020/12/20 01:06:32;;;;;;;20.17;12.23;;;5.60;99.80;;;;;;4926519;28;20340;-86
2020/12/20 01:09:00;;;;;;;16.15;11.35;;;5.60;99.80;;;;;;4942249;28;20262;-86
2020/12/20 01:11:28;;;;;;;19.30;10.77;;;5.60;99.80;;;;;;4966176;28;20250;-86
2020/12/20 01:13:55;;;;;;;19.23;12.35;;;5.60;99.80;;;;;;4964470;28;20223;-86
2020/12/20 01:16:25;;;;;;;20.92;12.05;;;5.60;99.80;;;;;;4957099;28;20248;-87
2020/12/20 01:18:53;;;;;;;19.58;11.10;;;5.60;99.80;;;;;;4966676;28;20238;-86
2020/12/20 01:21:21;;;;;;;16.40;11.45;;;5.60;99.80;;;;;;4970558;28;20230;-86
2020/12/20 01:23:49;;;;;;;17.73;11.00;;;5.60;99.80;;;;;;4969605;28;20289;-86
2020/12/20 01:26:16;;;;;;;19.30;12.63;;;5.60;99.80;;;;;;4965906;28;20249;-86
2020/12/20 01:28:43;;;;;;;18.67;10.98;;;5.60;99.80;;;;;;4966975;28;20243;-87
2020/12/20 01:31:12;;;;;;;17.52;10.48;;;5.60;99.80;;;;;;4942431;28;20236;-86
2020/12/20 01:33:40;;;;;;;19.20;10.90;;;5.60;99.80;;;;;;4926322;28;20248;-87
2020/12/20 01:36:08;;;;;;;17.77;10.95;;;5.60;99.80;;;;;;4931142;28;20238;-87
2020/12/20 01:38:36;;;;;;;17.63;11.43;;;5.60;99.80;;;;;;4932988;28;20329;-87
2020/12/20 01:41:04;;;;;;;15.93;10.43;;;5.60;99.80;;;;;;4963278;28;20673;-86
2020/12/20 01:43:41;;;;;;;19.30;11.43;;;5.50;99.80;;;;;;4952584;28;20228;-86
2020/12/20 01:46:12;;;;;;;17.60;10.68;;;5.50;99.80;;;;;;4931275;28;20249;-87
2020/12/20 01:48:40;;;;;;;16.70;10.63;;;5.50;99.80;;;;;;4926987;28;20233;-87
2020/12/20 01:51:08;;;;;;;17.45;11.57;;;5.40;99.80;;;;;;4925045;28;20264;-86
2020/12/20 01:53:36;;;;;;;16.95;10.52;;;5.40;99.80;;;;;;4933366;28;20234;-86
2020/12/20 01:56:04;;;;;;;17.35;10.38;;;5.40;99.80;;;;;;4960592;28;20659;-86
2020/12/20 01:58:36;;;;;;;18.25;11.18;;;5.40;99.80;;;;;;4968230;28;20237;-86
2020/12/20 02:01:05;;;;;;;18.48;11.35;;;5.30;99.80;;;;;;4954198;28;20313;-86
2020/12/20 02:03:33;;;;;;;22.42;12.98;;;5.10;99.80;;;;;;4927115;28;20236;-86
2020/12/20 02:06:03;;;;;;;19.30;11.88;;;5.20;99.80;;;;;;4945141;28;20239;-86
2020/12/20 02:08:31;;;;;;;18.58;11.40;;;5.10;99.80;;;;;;4949758;28;20225;-86
2020/12/20 02:11:09;;;;;;;16.23;10.63;;;5.10;99.80;;;;;;4957721;28;20281;-86
2020/12/20 02:13:40;;;;;;;19.40;11.70;;;5.00;99.80;;;;;;4951252;28;20237;-86
2020/12/20 02:16:07;;;;;;;19.88;12.38;;;5.00;99.80;;;;;;4936072;28;20241;-86
2020/12/20 02:18:35;;;;;;;22.05;12.88;;;5.00;99.80;;;;;;4937086;28;20242;-86
2020/12/20 02:21:10;;;;;;;17.52;11.82;;;5.00;99.80;;;;;;4913796;28;20643;-87
2020/12/20 02:23:39;;;;;;;19.17;11.50;;;5.00;99.80;;;;;;4909084;28;20245;-86
2020/12/20 02:26:06;;;;;;;21.17;11.73;;;5.00;99.80;;;;;;4961487;28;20725;-86
2020/12/20 02:28:33;;;;;;;19.27;12.27;;;5.10;99.80;;;;;;4964789;28;20229;-86
2020/12/20 02:31:00;;;;;;;20.48;11.98;;;5.10;99.80;;;;;;4965082;28;20222;-86
2020/12/20 02:33:27;;;;;;;21.70;11.95;;;5.10;99.80;;;;;;4958510;28;20236;-87
2020/12/20 02:35:54;;;;;;;21.00;11.50;;;5.20;99.80;;;;;;4958632;28;20241;-87
2020/12/20 02:38:22;;;;;;;19.00;11.27;;;5.10;99.80;;;;;;4932722;28;20238;-86
2020/12/20 02:40:49;;;;;;;17.98;11.38;;;5.20;99.80;;;;;;4965242;28;20229;-86
2020/12/20 02:43:16;;;;;;;19.23;11.35;;;5.20;99.80;;;;;;4950291;28;20260;-86
2020/12/20 02:45:43;;;;;;;22.70;12.10;;;5.20;99.80;;;;;;4951588;28;20233;-87
2020/12/20 02:48:10;;;;;;;19.45;11.82;;;5.20;99.80;;;;;;4924564;28;20237;-86
2020/12/20 02:50:37;;;;;;;18.85;11.15;;;5.20;99.80;;;;;;4938232;28;20310;-86
2020/12/20 02:53:04;;;;;;;18.10;11.15;;;5.20;99.80;;;;;;4925851;28;20236;-87
2020/12/20 02:55:32;;;;;;;21.33;12.48;;;5.20;99.80;;;;;;4965973;28;20240;-86
2020/12/20 02:57:59;;;;;;;20.70;12.25;;;5.20;99.80;;;;;;4964983;28;20231;-87
2020/12/20 03:00:26;;;;;;;17.25;11.32;;;5.20;99.80;;;;;;4965253;28;20265;-86
2020/12/20 03:02:53;;;;;;;20.17;12.45;;;5.20;99.80;;;;;;4970396;28;20604;-86
2020/12/20 03:05:20;;;;;;;22.20;12.52;;;5.10;99.80;;;;;;4971042;28;20259;-86
2020/12/20 03:07:47;;;;;;;20.08;11.63;;;5.10;99.80;;;;;;4961495;28;20246;-86
2020/12/20 03:10:16;;;;;;;18.73;11.68;;;5.10;99.80;;;;;;4969413;28;20274;-86
2020/12/20 03:12:45;;;;;;;14.40;10.35;;;5.20;99.80;;;;;;4968130;28;20213;-86
2020/12/20 03:15:12;;;;;;;20.52;12.95;;;5.20;99.80;;;;;;4943907;28;21109;-86
2020/12/20 03:17:39;;;;;;;18.55;11.60;;;5.20;99.80;;;;;;4938746;28;20229;-86
2020/12/20 03:20:07;;;;;;;19.88;11.88;;;5.20;99.80;;;;;;4954067;28;20321;-86
2020/12/20 03:22:34;;;;;;;21.05;11.07;;;5.20;99.80;;;;;;4953870;28;20233;-86
2020/12/20 03:25:01;;;;;;;15.85;10.85;;;5.20;99.80;;;;;;4959984;28;20230;-86
2020/12/20 03:27:28;;;;;;;19.85;11.82;;;5.20;99.80;;;;;;4949493;28;20711;-86
2020/12/20 03:29:56;;;;;;;18.77;11.18;;;5.20;99.80;;;;;;4933302;28;20238;-86
2020/12/20 03:32:23;;;;;;;21.27;11.85;;;5.20;99.80;;;;;;4928404;28;20234;-86
2020/12/20 03:34:50;;;;;;;20.27;13.38;;;5.20;99.80;;;;;;4930553;28;20227;-86
2020/12/20 03:37:17;;;;;;;22.27;12.85;;;5.20;99.80;;;;;;4939681;28;20243;-86
2020/12/20 03:39:45;;;;;;;19.98;12.15;;;5.20;99.80;;;;;;4946201;28;20261;-86
2020/12/20 03:42:12;;;;;;;19.65;11.82;;;5.20;99.80;;;;;;4962935;28;20240;-87
2020/12/20 03:44:39;;;;;;;22.52;12.95;;;5.20;99.80;;;;;;4964873;28;20238;-86
2020/12/20 03:47:07;;;;;;;21.70;11.60;;;5.20;99.80;;;;;;4952504;28;20233;-87
2020/12/20 03:49:34;;;;;;;19.15;12.50;;;5.20;99.80;;;;;;4920716;28;20237;-86
2020/12/20 03:52:01;;;;;;;20.08;12.20;;;5.20;99.80;;;;;;4929038;28;20233;-86
2020/12/20 03:54:28;;;;;;;22.58;12.23;;;5.20;99.80;;;;;;4937519;28;20633;-86
2020/12/20 03:56:56;;;;;;;17.17;11.05;;;5.20;99.80;;;;;;4953679;28;20234;-86
2020/12/20 03:59:23;;;;;;;12.57;9.23;;;5.20;99.80;;;;;;4936782;28;20234;-86
2020/12/20 04:01:50;;;;;;;20.13;11.10;;;5.20;99.80;;;;;;4901859;28;20237;-86
2020/12/20 04:04:18;;;;;;;19.40;11.35;;;5.20;99.80;;;;;;4930249;28;20234;-86
2020/12/20 04:06:45;;;;;;;18.83;10.75;;;5.30;99.80;;;;;;4914707;28;20233;-87
2020/12/20 04:09:12;;;;;;;20.38;11.35;;;5.20;99.80;;;;;;4938825;28;20249;-87
2020/12/20 04:11:39;;;;;;;21.33;11.82;;;5.20;99.80;;;;;;4960621;28;20251;-87
2020/12/20 04:14:06;;;;;;;19.15;11.73;;;5.20;99.80;;;;;;4960347;28;20225;-86
2020/12/20 04:16:33;;;;;;;17.65;11.05;;;5.20;99.80;;;;;;4967885;28;20971;-86
2020/12/20 04:19:00;;;;;;;19.98;11.52;;;5.30;99.80;;;;;;4967284;28;20738;-86
2020/12/20 04:21:32;;;;;;;19.63;10.82;;;5.30;99.80;;;;;;4969005;28;20245;-87
2020/12/20 04:23:59;;;;;;;20.10;12.82;;;5.30;99.80;;;;;;4967187;28;20244;-86
2020/12/20 04:26:26;;;;;;;17.65;11.40;;;5.30;99.80;;;;;;4968166;28;20238;-86
2020/12/20 04:28:53;;;;;;;14.85;9.95;;;5.30;99.80;;;;;;4969810;28;20241;-86
2020/12/20 04:31:20;;;;;;;15.13;10.23;;;5.20;99.80;;;;;;4972389;28;20228;-86
2020/12/20 04:33:47;;;;;;;17.33;10.38;;;5.20;99.80;;;;;;4966984;28;20909;-86
2020/12/20 04:36:15;;;;;;;13.82;9.10;;;5.20;99.80;;;;;;4969029;28;20227;-86
2020/12/20 04:38:46;;;;;;;18.27;10.88;;;5.20;99.80;;;;;;4959169;28;20230;-86
2020/12/20 04:41:13;;;;;;;18.95;11.40;;;5.20;99.80;;;;;;4966660;28;20254;-86
2020/12/20 04:43:41;;;;;;;15.43;10.25;;;5.20;99.80;;;;;;4969648;28;20236;-86
2020/12/20 04:46:10;;;;;;;18.77;11.48;;;5.20;99.80;;;;;;4962146;28;20253;-86
2020/12/20 04:48:38;;;;;;;17.38;11.48;;;5.20;99.80;;;;;;4958958;28;20231;-86
2020/12/20 04:51:07;;;;;;;18.13;11.95;;;5.20;99.80;;;;;;4969914;28;20234;-87
2020/12/20 04:53:35;;;;;;;19.98;10.75;;;5.20;99.80;;;;;;4968331;28;20225;-88
2020/12/20 04:56:05;;;;;;;20.75;11.60;;;5.10;99.80;;;;;;4972827;28;20237;-86
2020/12/20 04:58:33;;;;;;;19.80;11.32;;;5.00;99.80;;;;;;4969788;28;20330;-87
2020/12/20 05:01:00;;;;;;;18.23;11.43;;;5.00;99.80;;;;;;4968804;28;20229;-86
2020/12/20 05:03:27;;;;;;;16.88;10.50;;;5.00;99.80;;;;;;4967784;28;20239;-86
2020/12/20 05:05:55;;;;;;;21.52;12.52;;;5.00;99.80;;;;;;4964696;28;20232;-87
2020/12/20 05:08:24;;;;;;;18.55;10.80;;;5.00;99.80;;;;;;4964369;28;20976;-87
2020/12/20 05:10:52;;;;;;;19.40;11.43;;;5.00;99.80;;;;;;4948040;28;20759;-87
2020/12/20 05:13:21;;;;;;;20.67;11.98;;;5.00;99.80;;;;;;4949957;28;20323;-87
2020/12/20 05:15:49;;;;;;;17.20;10.52;;;5.00;99.80;;;;;;4931583;28;20233;-87
2020/12/20 05:18:17;;;;;;;20.88;12.13;;;5.00;99.80;;;;;;4937840;28;20230;-86
2020/12/20 05:20:46;;;;;;;18.98;10.20;;;4.90;99.80;;;;;;4937612;28;20289;-86
2020/12/20 05:23:15;;;;;;;18.30;11.52;;;4.90;99.80;;;;;;4916544;28;20333;-86
2020/12/20 05:25:44;;;;;;;23.83;11.60;;;4.90;99.80;;;;;;4957918;28;20241;-87
2020/12/20 05:28:14;;;;;;;20.60;12.70;;;4.90;99.80;;;;;;4972361;28;20719;-86
2020/12/20 05:30:43;;;;;;;19.33;11.63;;;4.90;99.80;;;;;;4970629;28;20228;-86
2020/12/20 05:33:23;;;;;;;27.27;13.30;;;5.00;99.80;;;;;;4971192;28;20875;-86
2020/12/20 05:35:57;;;;;;;19.80;12.20;;;4.90;99.80;;;;;;4965396;28;20735;-87
2020/12/20 05:38:24;;;;;;;19.70;10.93;;;4.90;99.80;;;;;;4963823;28;20235;-87
2020/12/20 05:40:51;;;;;;;24.13;12.38;;;4.90;99.80;;;;;;4964812;28;20227;-86
2020/12/20 05:43:23;;;;;;;21.75;11.90;;;4.90;99.80;;;;;;4927152;28;20428;-86
2020/12/20 05:45:51;;;;;;;22.05;11.95;;;4.90;99.80;;;;;;4928451;28;20237;-86
2020/12/20 05:48:22;;;;;;;20.67;12.02;;;4.90;99.80;;;;;;4928150;28;20716;-86
2020/12/20 05:50:51;;;;;;;20.30;12.48;;;4.90;99.80;;;;;;4937819;28;20229;-87
2020/12/20 05:53:23;;;;;;;22.48;12.27;;;4.90;99.80;;;;;;4928718;28;20227;-86
2020/12/20 05:55:50;;;;;;;22.42;14.00;;;4.90;99.80;;;;;;4971923;28;20225;-87
2020/12/20 05:58:17;;;;;;;19.38;11.82;;;4.90;99.80;;;;;;4962677;28;20234;-87
2020/12/20 06:00:47;;;;;;;19.90;11.77;;;4.90;99.80;;;;;;4967756;28;20236;-86
2020/12/20 06:03:16;;;;;;;18.85;11.15;;;5.00;99.80;;;;;;4965926;28;20231;-87
2020/12/20 06:05:44;;;;;;;19.77;11.00;;;5.00;99.80;;;;;;4961842;28;20234;-86
2020/12/20 06:08:13;;;;;;;23.52;12.60;;;5.10;99.80;;;;;;4962867;28;20705;-85
2020/12/20 06:10:42;;;;;;;20.40;12.40;;;5.00;99.80;;;;;;4970320;28;20240;-86
2020/12/20 06:13:12;;;;;;;23.38;12.05;;;5.10;99.80;;;;;;4950592;28;20724;-86
2020/12/20 06:15:41;;;;;;;19.48;11.10;;;5.00;99.80;;;;;;4932245;28;20233;-86
2020/12/20 06:18:10;;;;;;;21.45;11.55;;;5.10;99.80;;;;;;4931958;28;20234;-87
2020/12/20 06:20:53;;;;;;;20.67;11.40;;;5.00;99.80;;;;;;4936831;28;21487;-86
2020/12/20 06:23:22;;;;;;;22.13;12.00;;;5.00;99.80;;;;;;4930445;28;20228;-86
2020/12/20 06:25:50;;;;;;;26.58;11.60;;;5.10;99.80;;;;;;4957025;28;20250;-87
2020/12/20 06:28:20;;;;;;;21.83;12.30;;;5.10;99.80;;;;;;4971173;28;20229;-87
2020/12/20 06:30:47;;;;;;;21.73;11.75;;;5.10;99.80;;;;;;4968402;28;20704;-87
2020/12/20 06:33:23;;;;;;;18.33;11.82;;;5.20;99.80;;;;;;4959058;28;20241;-87
2020/12/20 06:35:53;;;;;;;24.20;12.80;;;5.20;99.80;;;;;;4969662;28;20891;-87
2020/12/20 06:38:22;;;;;;;20.00;12.30;;;5.10;99.80;;;;;;4969833;28;20237;-87
2020/12/20 06:40:50;;;;;;;20.48;11.18;;;5.10;99.80;;;;;;4970168;28;20256;-86
2020/12/20 06:43:29;;;;;;;23.98;11.35;;;5.10;99.80;;;;;;4971289;28;20236;-86
2020/12/20 06:45:56;;;;;;;20.42;11.80;;;5.10;99.80;;;;;;4941607;28;20274;-86
2020/12/20 06:48:34;;;;;;;18.23;11.32;;;5.10;99.80;;;;;;4925457;28;20313;-87
2020/12/20 06:51:05;;;;;;;22.02;12.43;;;5.10;99.80;;;;;;4915714;28;20230;-87
2020/12/20 06:53:51;;;;;;;23.02;12.77;;;5.10;99.80;;;;;;4924684;28;20225;-87
2020/12/20 06:56:20;;;;;;;20.40;11.45;;;5.10;99.80;;;;;;4931029;28;20238;-87
2020/12/20 06:58:48;;;;;;;22.63;11.25;;;5.10;99.80;;;;;;4916131;28;20241;-85
2020/12/20 07:01:44;;;;;;;27.92;13.95;;;5.10;99.80;;;;;;4932489;28;20244;-85
2020/12/20 07:04:14;;;;;;;24.15;14.48;;;5.10;99.80;;;;;;4857862;29;20252;-85
2020/12/20 07:07:03;;;;;;;27.23;14.55;;;5.10;99.80;;;;;;4879727;28;20264;-85
2020/12/20 07:09:32;;;;;;;28.67;16.33;;;5.10;99.80;;;;;;4948486;28;20237;-85
2020/12/20 07:12:00;;;;;;;23.00;11.38;;;5.10;99.80;;;;;;4964969;28;20237;-86
2020/12/20 07:14:34;;;;;;;23.05;13.32;;;5.10;99.80;;;;;;4964581;28;20235;-85
2020/12/20 07:17:02;;;;;;;21.05;12.68;;;5.10;99.80;;;;;;4937123;28;20238;-84
2020/12/20 07:19:29;;;;;;;17.75;10.60;;;5.10;99.80;;;;;;4934047;28;20230;-85
2020/12/20 07:22:00;;;;;;;23.42;13.00;;;5.10;99.80;;;;;;4915497;28;20226;-86
2020/12/20 07:24:29;;;;;;;22.45;11.63;;;5.00;99.80;;;;;;4923150;28;20293;-86
2020/12/20 07:27:00;;;;;;;24.60;12.48;;;5.00;99.80;;;;;;4918987;28;20232;-85
2020/12/20 07:29:29;;;;;;;22.33;12.35;;;5.00;99.80;;;;;;4911580;28;20345;-85
2020/12/20 07:31:57;;;;;;;18.90;11.85;;;5.00;99.80;;;;;;4902306;28;20222;-85
2020/12/20 07:34:25;;;;;;;23.30;12.82;;;5.00;99.80;;;;;;4913666;28;20235;-86
2020/12/20 07:36:53;;;;;;;20.27;11.98;;;5.00;99.80;;;;;;4929626;28;20923;-85
2020/12/20 07:39:21;;;;;;;24.30;11.27;;;5.00;99.80;;;;;;4943764;28;20786;-85
2020/12/20 07:41:48;;;;;;;20.55;11.82;;;5.00;99.80;;;;;;4962317;28;20465;-85
2020/12/20 07:44:15;;;;;;;19.85;11.80;;;4.90;99.80;;;;;;4964496;28;20229;-85
2020/12/20 07:46:43;;;;;;;20.80;10.93;;;5.00;99.80;;;;;;4963256;28;20230;-86
2020/12/20 07:49:12;;;;;;;18.00;11.27;;;4.90;99.80;;;;;;4968227;28;20241;-85
2020/12/20 07:51:39;;;;;;;20.67;12.90;;;4.90;99.80;;;;;;4963506;28;20245;-85
2020/12/20 07:54:08;;;;;;;19.80;11.70;;;4.90;99.80;;;;;;4966520;28;20229;-85
2020/12/20 07:56:38;;;;;;;21.30;13.00;;;4.90;99.80;;;;;;4963972;28;20228;-85
2020/12/20 07:59:06;;;;;;;20.80;11.95;;;4.90;99.80;;;;;;4935801;28;20230;-85
2020/12/20 08:01:35;;;;;;;20.83;11.18;;;4.90;99.80;;;;;;4940636;28;20718;-85
2020/12/20 08:04:04;;;;;;;17.50;11.57;;;4.90;99.80;;;;;;4933799;28;20238;-84
2020/12/20 08:06:32;;;;;;;23.48;12.45;;;4.90;99.80;;;;;;4918185;28;20230;-86
2020/12/20 08:09:08;;;;;;;22.77;12.38;;;4.90;99.80;;;;;;4944252;28;20243;-86
2020/12/20 08:11:37;;;;;;;29.15;13.73;;;5.00;99.80;;;;;;4965042;28;20312;-85
2020/12/20 08:14:05;;;;;;;24.58;12.82;;;5.00;99.80;;;;;;4968051;28;20223;-87
2020/12/20 08:16:34;;;;;;;20.73;12.30;;;5.00;99.80;;;;;;4967624;28;20229;-86
2020/12/20 08:19:04;;;;;;;26.77;12.80;;;5.00;99.80;;;;;;4967665;28;20233;-86
2020/12/20 08:22:01;;;;;;;22.67;12.40;;;5.00;99.80;;;;;;4965590;28;20249;-85
2020/12/20 08:24:30;;;;;;;22.35;11.15;;;5.00;99.80;;;;;;4966763;28;20238;-87
2020/12/20 08:26:59;;;;;;;24.48;11.55;;;5.00;99.80;;;;;;4966098;28;20226;-86
2020/12/20 08:29:26;;;;;;;21.08;12.30;;;5.00;99.80;;;;;;4954942;28;20287;-87
2020/12/20 08:31:53;;;;;;;23.83;12.63;;;5.00;99.80;;;;;;4909727;28;20789;-86
2020/12/20 08:34:22;;;;;;;25.52;13.40;;;5.00;99.80;;;;;;4927555;28;20233;-87
2020/12/20 08:36:51;;;;;;;26.80;12.13;;;5.00;99.80;;;;;;4945741;28;20229;-85
2020/12/20 08:39:22;;;;;;;24.10;13.55;;;5.00;99.80;;;;;;4958493;28;20724;-85
2020/12/20 08:42:02;;;;;;;22.35;12.20;;;5.00;99.80;;;;;;4964601;28;20265;-85
2020/12/20 08:44:29;;;;;;;25.08;11.13;;;5.10;99.80;;;;;;4966217;28;20244;-85
2020/12/20 08:47:07;;;;;;;21.63;11.55;;;5.10;99.80;;;;;;4966747;28;20232;-86
2020/12/20 08:49:33;;;;;;;19.38;12.38;;;5.10;99.80;;;;;;4965744;28;20224;-86
2020/12/20 08:52:11;;;;;;;21.58;12.70;;;5.10;99.80;;;;;;4967723;28;20257;-86
2020/12/20 08:54:39;;;;;;;21.58;11.98;;;5.10;99.80;;;;;;4968745;28;20229;-86
2020/12/20 08:57:10;;;;;;;23.33;12.85;;;5.10;99.80;;;;;;4968090;28;21052;-86
2020/12/20 08:59:40;;;;;;;25.27;13.30;;;5.10;99.80;;;;;;4966799;28;20409;-85
2020/12/20 09:02:09;;;;;;;19.65;12.20;;;5.10;99.80;;;;;;4920289;28;20251;-85
2020/12/20 09:04:37;;;;;;;19.73;11.15;;;5.10;99.80;;;;;;4934388;28;20247;-85
2020/12/20 09:07:07;;;;;;;24.23;13.00;;;5.20;99.80;;;;;;4944753;28;21720;-86
2020/12/20 09:09:35;;;;;;;20.67;11.70;;;5.20;99.80;;;;;;4938833;28;20295;-85
2020/12/20 09:12:20;;;;;;;21.65;12.35;;;5.20;99.80;;;;;;4932292;28;20600;-86
2020/12/20 09:15:09;;;;;;;23.90;13.02;;;5.20;99.80;;;;;;4932339;28;20235;-86
2020/12/20 09:17:38;;;;;;;20.85;12.00;;;5.20;99.80;;;;;;4944201;28;20581;-86
2020/12/20 09:20:08;;;;;;;21.08;13.10;;;5.30;99.80;;;;;;4929306;28;20827;-85
2020/12/20 09:22:53;;;;;;;22.92;12.88;;;5.20;99.80;;;;;;4924464;28;20229;-85
2020/12/20 09:25:32;;;;;;;23.70;12.98;;;5.30;99.80;;;;;;4956852;28;20240;-86
2020/12/20 09:28:01;;;;;;;18.73;12.13;;;5.30;99.80;;;;;;4967035;28;20229;-86
2020/12/20 09:30:40;;;;;;;20.17;12.00;;;5.40;99.80;;;;;;4967268;28;20236;-85
2020/12/20 09:33:25;;;;;;;21.92;12.27;;;5.40;99.80;;;;;;4967112;28;20234;-86
2020/12/20 09:36:01;;;;;;;23.90;12.43;;;5.50;99.80;;;;;;4964452;28;20229;-86
2020/12/20 09:38:30;;;;;;;18.08;10.77;;;5.50;99.80;;;;;;4964679;28;20226;-86
2020/12/20 09:41:01;;;;;;;19.13;10.73;;;5.50;99.80;;;;;;4963221;28;20236;-85
2020/12/20 09:43:30;;;;;;;21.92;12.10;;;5.50;99.80;;;;;;4916257;28;20235;-85
2020/12/20 09:45:57;;;;;;;22.65;12.95;;;5.50;99.80;;;;;;4919735;28;20245;-86
2020/12/20 09:48:24;;;;;;;20.15;12.05;;;5.50;99.80;;;;;;4946202;28;20742;-85
2020/12/20 09:50:52;;;;;;;19.00;11.77;;;5.50;99.80;;;;;;4926410;28;20237;-86
2020/12/20 09:53:19;;;;;;;19.45;11.07;;;5.50;99.80;;;;;;4923393;28;20246;-85
2020/12/20 09:55:46;;;;;;;22.42;13.45;;;5.60;99.80;;;;;;4952094;28;20736;-85
2020/12/20 09:58:14;;;;;;;20.00;11.88;;;5.60;99.80;;;;;;4962244;28;20237;-85
2020/12/20 10:00:44;;;;;;;28.33;13.80;;;5.60;99.80;;;;;;4968666;28;20316;-87
2020/12/20 10:03:12;;;;;;;25.58;13.68;;;5.60;99.80;;;;;;4966117;28;20236;-86
2020/12/20 10:05:42;;;;;;;23.00;14.13;;;5.60;99.80;;;;;;4964229;28;20234;-85
2020/12/20 10:08:10;;;;;;;23.52;13.00;;;5.60;99.80;;;;;;4968058;28;20638;-85
2020/12/20 10:10:37;;;;;;;19.13;11.68;;;5.60;99.80;;;;;;4965848;28;20237;-86
2020/12/20 10:13:04;;;;;;;26.98;13.00;;;5.70;99.80;;;;;;4964807;28;20239;-85
2020/12/20 10:15:31;;;;;;;20.52;11.98;;;5.80;99.80;;;;;;4934968;28;20227;-85
2020/12/20 10:18:01;;;;;;;25.65;12.98;;;5.80;99.80;;;;;;4941306;28;20242;-87
2020/12/20 10:20:29;;;;;;;21.08;12.95;;;5.90;99.80;;;;;;4922710;28;20226;-85
2020/12/20 10:22:56;;;;;;;18.15;11.32;;;5.90;99.80;;;;;;4910130;28;20270;-85
2020/12/20 10:25:23;;;;;;;19.95;11.30;;;6.00;99.80;;;;;;4963469;28;20313;-85
2020/12/20 10:27:53;;;;;;;19.30;11.63;;;6.00;99.80;;;;;;4966286;28;20222;-86
2020/12/20 10:30:20;;;;;;;21.88;12.20;;;6.10;99.80;;;;;;4962855;28;20230;-85
2020/12/20 10:32:47;;;;;;;20.30;12.82;;;6.10;99.80;;;;;;4964519;28;20663;-85
2020/12/20 10:35:15;;;;;;;22.80;12.15;;;6.20;99.80;;;;;;4967783;28;20226;-85
2020/12/20 10:37:43;;;;;;;23.88;12.60;;;6.20;99.80;;;;;;4963584;28;20258;-85
2020/12/20 10:40:10;;;;;;;19.15;12.43;;;6.30;99.80;;;;;;4966225;28;20239;-85
2020/12/20 10:42:37;;;;;;;19.13;11.80;;;6.30;99.80;;;;;;4965489;28;20238;-85
2020/12/20 10:45:05;;;;;;;19.00;11.55;;;6.30;99.80;;;;;;4942445;28;20729;-86
2020/12/20 10:47:32;;;;;;;21.33;12.52;;;6.30;99.80;;;;;;4938678;28;20240;-85
2020/12/20 10:49:59;;;;;;;18.65;11.80;;;6.40;99.80;;;;;;4931118;28;20306;-85
2020/12/20 10:52:28;;;;;;;23.55;13.23;;;6.50;99.80;;;;;;4925937;28;20238;-86
2020/12/20 10:54:55;;;;;;;25.52;13.57;;;6.60;99.80;;;;;;4938068;28;20321;-85
2020/12/20 10:57:22;;;;;;;21.73;13.30;;;6.50;99.80;;;;;;4940794;28;21169;-86
2020/12/20 10:59:49;;;;;;;20.33;11.95;;;6.50;99.80;;;;;;4917189;28;20664;-87
2020/12/20 11:02:16;;;;;;;18.63;12.20;;;6.60;99.80;;;;;;4887395;28;20677;-85
2020/12/20 11:04:43;;;;;;;19.50;11.88;;;6.50;99.80;;;;;;4912671;28;20772;-86
2020/12/20 11:07:10;;;;;;;23.58;12.95;;;6.50;99.80;;;;;;4912170;28;20226;-86
2020/12/20 11:09:39;;;;;;;19.50;11.45;;;6.40;99.80;;;;;;4941112;28;20234;-87
2020/12/20 11:12:09;;;;;;;22.63;13.73;;;6.40;99.80;;;;;;4961674;28;20236;-88
2020/12/20 11:14:36;;;;;;;30.10;13.63;;;6.30;99.80;;;;;;4958919;28;20224;-86
2020/12/20 11:17:03;;;;;;;20.85;12.70;;;6.30;99.80;;;;;;4930477;28;20258;-86
2020/12/20 11:19:30;;;;;;;22.98;12.40;;;6.20;99.80;;;;;;4921574;28;20238;-86
2020/12/20 11:21:58;;;;;;;23.02;13.35;;;6.20;99.80;;;;;;4915147;28;20230;-87
2020/12/20 11:24:25;;;;;;;20.20;13.55;;;6.20;99.80;;;;;;4922971;28;20245;-87
2020/12/20 11:26:54;;;;;;;21.73;12.18;;;6.20;99.80;;;;;;4949729;28;20255;-86
2020/12/20 11:29:23;;;;;;;21.50;13.02;;;6.20;99.80;;;;;;4907133;28;20609;-85
2020/12/20 11:31:52;;;;;;;21.52;12.00;;;6.30;99.80;;;;;;4920457;28;20230;-86
2020/12/20 11:34:22;;;;;;;20.50;11.77;;;6.40;99.80;;;;;;4922415;28;20253;-86
2020/12/20 11:36:49;;;;;;;20.63;13.02;;;6.50;99.80;;;;;;4921081;28;20323;-86
2020/12/20 11:39:22;;;;;;;23.98;13.40;;;6.50;99.80;;;;;;4912105;28;20626;-85
2020/12/20 11:41:49;;;;;;;17.13;10.32;;;6.50;99.80;;;;;;4955393;28;20227;-84
2020/12/20 11:44:17;;;;;;;25.05;13.30;;;6.50;99.80;;;;;;4960554;28;20864;-85
2020/12/20 11:46:44;;;;;;;28.00;16.27;;;6.50;99.80;;;;;;4963676;28;20893;-85
2020/12/20 11:49:11;;;;;;;30.13;16.40;;;6.50;99.80;;;;;;4962066;28;20251;-85
2020/12/20 11:51:39;;;;;;;21.45;14.15;;;6.50;99.80;;;;;;4963084;28;20728;-86
2020/12/20 11:54:06;;;;;;;20.50;12.65;;;6.50;99.80;;;;;;4961740;28;20223;-85
2020/12/20 11:56:33;;;;;;;24.00;12.63;;;6.50;99.80;;;;;;4956453;28;20252;-85
2020/12/20 11:59:00;;;;;;;81.45;25.30;;;6.40;99.80;;;;;;4920541;28;20267;-85
2020/12/20 12:01:30;;;;;;;50.53;21.48;;;6.40;99.80;;;;;;4931846;28;20235;-85
2020/12/20 12:03:57;;;;;;;77.45;25.15;;;6.50;99.80;;;;;;4910602;28;20783;-85
2020/12/20 12:06:24;;;;;;;43.78;17.73;;;6.50;99.80;;;;;;4908652;28;20258;-85
2020/12/20 12:08:51;;;;;;;26.83;13.50;;;6.40;99.80;;;;;;4925080;28;20240;-86
2020/12/20 12:11:19;;;;;;;19.73;13.35;;;6.40;99.80;;;;;;4964069;28;20238;-85
2020/12/20 12:13:47;;;;;;;26.13;13.63;;;6.40;99.80;;;;;;4961717;28;22390;-85
2020/12/20 12:16:15;;;;;;;23.67;14.48;;;6.40;99.80;;;;;;4963444;28;20230;-85
2020/12/20 12:18:44;;;;;;;21.48;13.55;;;6.30;99.80;;;;;;4966097;28;20231;-86
2020/12/20 12:21:12;;;;;;;21.20;13.27;;;6.30;99.80;;;;;;4963570;28;20277;-85
2020/12/20 12:23:44;;;;;;;20.50;13.65;;;6.30;99.80;;;;;;4961733;28;20226;-86
2020/12/20 12:26:11;;;;;;;25.55;14.05;;;6.30;99.80;;;;;;4961867;28;20247;-86
2020/12/20 12:28:39;;;;;;;25.17;13.48;;;6.30;99.80;;;;;;4962728;28;20219;-85
2020/12/20 12:31:06;;;;;;;31.25;13.57;;;6.30;99.80;;;;;;4936022;28;20709;-85
2020/12/20 12:33:33;;;;;;;23.73;13.63;;;6.30;99.80;;;;;;4937410;28;20705;-86
2020/12/20 12:36:03;;;;;;;22.40;13.60;;;6.30;99.80;;;;;;4919606;28;20821;-86
2020/12/20 12:38:30;;;;;;;23.88;13.77;;;6.20;99.80;;;;;;4920171;28;20257;-85
2020/12/20 12:40:58;;;;;;;20.00;13.00;;;6.20;99.80;;;;;;4938304;28;20616;-85
2020/12/20 12:43:25;;;;;;;20.40;12.88;;;6.20;99.80;;;;;;4927723;28;20237;-85
2020/12/20 12:45:52;;;;;;;24.42;13.70;;;6.20;99.80;;;;;;4908907;28;20238;-88
2020/12/20 12:48:19;;;;;;;27.77;14.93;;;6.20;99.80;;;;;;4918286;28;20243;-85